UTDDUTSB

Guest
Details From UTDD - DUSHANBE
To UTSB - BUKHARA
Flight Number -
Tags generated
Created
Modified
Stats Distance 217 nm / 401 km
Max Altitude 26,100 ft / 7,955 m
Waypoints 4
Social Downloads 2
Likes 0
Share VATSIM

Download

Looking for another format? Having issues loading an existing format? Contact us
Advertisement - Login to hide

Notes

Basic altitude profile: - Ascent Rate: 2500ft/min - Ascent Speed: 250kts - Cruise Altitude: 35000ft - Cruise Speed: 420kts - Descent Rate: 1500ft/min - Descent Speed: 250kts Options: - Use NATs: yes - Use PACOTS: yes - Use low airways: yes - Use high airways: yes

Route

UTDD IRBIN ALABU UTSB

ID Type Via Altitude Latitude Longitude Leg Dist Tot Dist Heading (true) Name
O UTDD APT - 0 ft / 0 m 38.54349˚ 68.82464˚ - 0 nm - DUSHANBE
IRBIN FIX - 26,100 ft / 7,955 m 39.23667˚ 67.00167˚ 94 nm 94 nm 297° / 295° -
ALABU FIX - 18,000 ft / 5,486 m 39.48833˚ 66.36667˚ 33 nm 127 nm 297° / 297° -
O UTSB APT - 0 ft / 0 m 39.77500˚ 64.48333˚ 88 nm 216 nm 282° / 281° BUKHARA

Altitude Profile

Advertisement - Login to hide

Weather


0- 5 10 15 20 25 30 35+ Temperature / ° C

Clouds and Precipitation
Forecast for 2017-12-12 18:00 UTC. Updated 40 minutes ago

Ground ~20,000 ft ~40,000 ft Winds

UTDD

Details ICAO UTDD (DYU)
Name DUSHANBE
Region Tajikistan, Turkmenistan and Uzbekistan
Timezone Asia/Dushanbe (UTC+5.0)
Stats Elevation 2,575 ft / 785 m (AMSL)
Location 38.543486° 68.824637°
Runways 1
Magnetic Variation 4.445° E

METAR

UTDD 121800Z 01001MPS 2400 BR FU OVC021 02/M01 Q1027 R09/D NOSIG RMK QFE701/0935

Decode

TAF

TAF TAF UTDD 121500Z 1216/1304 VRB02MPS 2100 BR FU SCT025 BKN040 TEMPO 1216/1304 1000 BR FU PROB40 TEMPO 1216/1304 0700 SNRA FG

Decode

Departure Runways

ID Width Length Bearing (true) Bearing (mag) Surface Threshold Offset Overrun Length
09 147 ft / 45 m 10,157 ft / 3,096 m 90.06° 85.62° Asphalt 0 ft / 0 m 0 ft / 0 m
27 147 ft / 45 m 10,157 ft / 3,096 m 270.08° 265.64° Asphalt 1,335 ft / 407 m 0 ft / 0 m

UTSB

Details ICAO UTSB (BHK)
Name BUKHARA
Region Tajikistan, Turkmenistan and Uzbekistan
Timezone Asia/Samarkand (UTC+5.0)
Stats Elevation 751 ft / 229 m (AMSL)
Location 39.775000° 64.483334°
Runways 1
Magnetic Variation 5.243° E

METAR

UTSB 121730Z 03006KT 3500 BR OVC005 M03/M05 Q1030 R01/CLRD70 NOSIG RMK BASE500

Decode

TAF

TAF UTSB 121700Z 1218/1318 VRB03KT 4000 BR SCT008 TEMPO 1218/1304 01010KT 0500 FZFG VV002

Decode

Destination Runways

ID Width Length Bearing (true) Bearing (mag) Surface Threshold Offset Overrun Length
01 147 ft / 45 m 9,909 ft / 3,020 m 10.87° 5.63° Asphalt 0 ft / 0 m 177 ft / 54 m
19 147 ft / 45 m 9,909 ft / 3,020 m 190.88° 185.64° Asphalt 0 ft / 0 m 177 ft / 54 m

Approach Navaids

Runway Type Ident Frequency Range Bearing (true) Bearing (mag) Slope Elevation
01 Localiser IUH 110.30 MHz 18 nm / 33 km 10.88° 5.63° - 753 ft / 230 m (AMSL)
01 Glidescope IUH 110.30 MHz 10 nm / 19 km 10.88° 5.63° 3.00° 736 ft / 224 m (AMSL)